sensor_id;sensor_type;location;lat;lon;timestamp;temperature;humidity
25092;DHT22;13082;52.374;4.946;2023-04-15T00:02:00;10.80;99.90
25092;DHT22;13082;52.374;4.946;2023-04-15T00:04:26;10.80;99.90
25092;DHT22;13082;52.374;4.946;2023-04-15T00:06:53;10.80;99.90
25092;DHT22;13082;52.374;4.946;2023-04-15T00:09:19;10.80;99.90
25092;DHT22;13082;52.374;4.946;2023-04-15T00:11:45;10.80;99.90
25092;DHT22;13082;52.374;4.946;2023-04-15T00:14:14;10.80;99.90
25092;DHT22;13082;52.374;4.946;2023-04-15T00:16:40;10.80;99.90
25092;DHT22;13082;52.374;4.946;2023-04-15T00:19:05;10.80;99.90
25092;DHT22;13082;52.374;4.946;2023-04-15T00:21:31;10.90;99.90
25092;DHT22;13082;52.374;4.946;2023-04-15T00:23:57;10.90;99.90
25092;DHT22;13082;52.374;4.946;2023-04-15T00:26:22;10.80;99.90
25092;DHT22;13082;52.374;4.946;2023-04-15T00:28:48;10.90;99.90
25092;DHT22;13082;52.374;4.946;2023-04-15T00:31:13;10.90;99.90
25092;DHT22;13082;52.374;4.946;2023-04-15T00:33:39;10.90;99.90
25092;DHT22;13082;52.374;4.946;2023-04-15T00:36:06;10.90;99.90
25092;DHT22;13082;52.374;4.946;2023-04-15T00:38:33;11.00;99.90
25092;DHT22;13082;52.374;4.946;2023-04-15T00:40:58;11.00;99.90
25092;DHT22;13082;52.374;4.946;2023-04-15T00:43:24;11.00;99.90
25092;DHT22;13082;52.374;4.946;2023-04-15T00:45:52;11.00;99.90
25092;DHT22;13082;52.374;4.946;2023-04-15T00:48:19;11.00;99.90
25092;DHT22;13082;52.374;4.946;2023-04-15T00:50:45;11.00;99.90
25092;DHT22;13082;52.374;4.946;2023-04-15T00:53:10;10.90;99.90
25092;DHT22;13082;52.374;4.946;2023-04-15T00:55:36;10.90;99.90
25092;DHT22;13082;52.374;4.946;2023-04-15T00:58:02;10.90;99.90
25092;DHT22;13082;52.374;4.946;2023-04-15T01:00:28;10.90;99.90
25092;DHT22;13082;52.374;4.946;2023-04-15T01:02:54;10.80;99.90
25092;DHT22;13082;52.374;4.946;2023-04-15T01:05:20;10.80;99.90
25092;DHT22;13082;52.374;4.946;2023-04-15T01:07:46;10.80;99.90
25092;DHT22;13082;52.374;4.946;2023-04-15T01:10:12;10.90;99.90
25092;DHT22;13082;52.374;4.946;2023-04-15T01:12:38;10.80;99.90
25092;DHT22;13082;52.374;4.946;2023-04-15T01:15:05;10.80;99.90
25092;DHT22;13082;52.374;4.946;2023-04-15T01:17:31;10.80;99.90
25092;DHT22;13082;52.374;4.946;2023-04-15T01:19:57;10.80;99.90
25092;DHT22;13082;52.374;4.946;2023-04-15T01:22:24;10.80;99.90
25092;DHT22;13082;52.374;4.946;2023-04-15T01:25:00;10.70;99.90
25092;DHT22;13082;52.374;4.946;2023-04-15T01:27:26;10.60;99.90
25092;DHT22;13082;52.374;4.946;2023-04-15T01:29:52;10.50;99.90
25092;DHT22;13082;52.374;4.946;2023-04-15T01:32:18;10.40;99.90
25092;DHT22;13082;52.374;4.946;2023-04-15T01:34:44;10.40;99.90
25092;DHT22;13082;52.374;4.946;2023-04-15T01:37:10;10.30;99.90
25092;DHT22;13082;52.374;4.946;2023-04-15T01:39:36;10.20;99.90
25092;DHT22;13082;52.374;4.946;2023-04-15T01:42:01;10.10;99.90
25092;DHT22;13082;52.374;4.946;2023-04-15T01:44:27;10.00;99.90
25092;DHT22;13082;52.374;4.946;2023-04-15T01:46:53;10.00;99.90
25092;DHT22;13082;52.374;4.946;2023-04-15T01:49:18;9.90;99.90
25092;DHT22;13082;52.374;4.946;2023-04-15T01:51:44;9.80;99.90
25092;DHT22;13082;52.374;4.946;2023-04-15T01:54:10;9.80;99.90
25092;DHT22;13082;52.374;4.946;2023-04-15T01:56:35;9.80;99.90
25092;DHT22;13082;52.374;4.946;2023-04-15T01:59:01;9.80;99.90
25092;DHT22;13082;52.374;4.946;2023-04-15T02:01:28;9.70;99.90
25092;DHT22;13082;52.374;4.946;2023-04-15T02:03:53;9.70;99.90
25092;DHT22;13082;52.374;4.946;2023-04-15T02:06:19;9.70;99.90
25092;DHT22;13082;52.374;4.946;2023-04-15T02:08:45;9.70;99.90
25092;DHT22;13082;52.374;4.946;2023-04-15T02:11:11;9.70;99.90
25092;DHT22;13082;52.374;4.946;2023-04-15T02:13:36;9.70;99.90
25092;DHT22;13082;52.374;4.946;2023-04-15T02:16:02;9.70;99.90
25092;DHT22;13082;52.374;4.946;2023-04-15T02:18:28;9.70;99.90
25092;DHT22;13082;52.374;4.946;2023-04-15T02:20:53;9.70;99.90
25092;DHT22;13082;52.374;4.946;2023-04-15T02:23:21;9.70;99.90
25092;DHT22;13082;52.374;4.946;2023-04-15T02:25:47;9.60;99.90
25092;DHT22;13082;52.374;4.946;2023-04-15T02:28:12;9.60;99.90
25092;DHT22;13082;52.374;4.946;2023-04-15T02:30:38;9.60;99.90
25092;DHT22;13082;52.374;4.946;2023-04-15T02:33:05;9.70;99.90
25092;DHT22;13082;52.374;4.946;2023-04-15T02:35:32;9.70;99.90
25092;DHT22;13082;52.374;4.946;2023-04-15T02:37:57;9.60;99.90
25092;DHT22;13082;52.374;4.946;2023-04-15T02:40:23;9.60;99.90
25092;DHT22;13082;52.374;4.946;2023-04-15T02:42:48;9.60;99.90
25092;DHT22;13082;52.374;4.946;2023-04-15T02:45:14;9.60;99.90
25092;DHT22;13082;52.374;4.946;2023-04-15T02:47:40;9.60;99.90
25092;DHT22;13082;52.374;4.946;2023-04-15T02:50:07;9.60;99.90
25092;DHT22;13082;52.374;4.946;2023-04-15T02:52:34;9.60;99.90
25092;DHT22;13082;52.374;4.946;2023-04-15T02:55:00;9.60;99.90
25092;DHT22;13082;52.374;4.946;2023-04-15T02:57:27;9.60;99.90
25092;DHT22;13082;52.374;4.946;2023-04-15T02:59:53;9.60;99.90
25092;DHT22;13082;52.374;4.946;2023-04-15T03:02:19;9.60;99.90
25092;DHT22;13082;52.374;4.946;2023-04-15T03:04:45;9.50;99.90
25092;DHT22;13082;52.374;4.946;2023-04-15T03:07:10;9.50;99.90
25092;DHT22;13082;52.374;4.946;2023-04-15T03:09:36;9.50;99.90
25092;DHT22;13082;52.374;4.946;2023-04-15T03:12:04;9.50;99.90
25092;DHT22;13082;52.374;4.946;2023-04-15T03:14:29;9.50;99.90
25092;DHT22;13082;52.374;4.946;2023-04-15T03:16:55;9.40;99.90
25092;DHT22;13082;52.374;4.946;2023-04-15T03:19:20;9.40;99.90
25092;DHT22;13082;52.374;4.946;2023-04-15T03:21:46;9.40;99.90
25092;DHT22;13082;52.374;4.946;2023-04-15T03:24:12;9.40;99.90
25092;DHT22;13082;52.374;4.946;2023-04-15T03:26:37;9.40;99.90
25092;DHT22;13082;52.374;4.946;2023-04-15T03:29:03;9.40;99.90
25092;DHT22;13082;52.374;4.946;2023-04-15T03:31:28;9.30;99.90
25092;DHT22;13082;52.374;4.946;2023-04-15T03:33:54;9.30;99.90
25092;DHT22;13082;52.374;4.946;2023-04-15T03:36:20;9.30;99.90
25092;DHT22;13082;52.374;4.946;2023-04-15T03:38:45;9.30;99.90
25092;DHT22;13082;52.374;4.946;2023-04-15T03:41:11;9.30;99.90
25092;DHT22;13082;52.374;4.946;2023-04-15T03:43:37;9.30;99.90
25092;DHT22;13082;52.374;4.946;2023-04-15T03:46:03;9.30;99.90
25092;DHT22;13082;52.374;4.946;2023-04-15T03:48:28;9.30;99.90
25092;DHT22;13082;52.374;4.946;2023-04-15T03:50:54;9.20;99.90
25092;DHT22;13082;52.374;4.946;2023-04-15T03:53:20;9.20;99.90
25092;DHT22;13082;52.374;4.946;2023-04-15T03:55:46;9.20;99.90
25092;DHT22;13082;52.374;4.946;2023-04-15T03:58:12;9.20;99.90
25092;DHT22;13082;52.374;4.946;2023-04-15T04:00:38;9.20;99.90
25092;DHT22;13082;52.374;4.946;2023-04-15T04:03:04;9.20;99.90
25092;DHT22;13082;52.374;4.946;2023-04-15T04:05:30;9.20;99.90
25092;DHT22;13082;52.374;4.946;2023-04-15T04:07:55;9.20;99.90
25092;DHT22;13082;52.374;4.946;2023-04-15T04:10:21;9.20;99.90
25092;DHT22;13082;52.374;4.946;2023-04-15T04:12:47;9.20;99.90
25092;DHT22;13082;52.374;4.946;2023-04-15T04:15:12;9.10;99.90
25092;DHT22;13082;52.374;4.946;2023-04-15T04:17:38;9.10;99.90
25092;DHT22;13082;52.374;4.946;2023-04-15T04:20:04;9.10;99.90
25092;DHT22;13082;52.374;4.946;2023-04-15T04:22:30;9.10;99.90
25092;DHT22;13082;52.374;4.946;2023-04-15T04:24:55;9.10;99.90
25092;DHT22;13082;52.374;4.946;2023-04-15T04:27:23;9.20;99.90
25092;DHT22;13082;52.374;4.946;2023-04-15T04:29:49;9.10;99.90
25092;DHT22;13082;52.374;4.946;2023-04-15T04:32:15;9.10;99.90
25092;DHT22;13082;52.374;4.946;2023-04-15T04:34:40;9.10;99.90
25092;DHT22;13082;52.374;4.946;2023-04-15T04:37:06;9.10;99.90
25092;DHT22;13082;52.374;4.946;2023-04-15T04:39:31;9.10;99.90
25092;DHT22;13082;52.374;4.946;2023-04-15T04:41:57;9.00;99.90
25092;DHT22;13082;52.374;4.946;2023-04-15T04:44:22;9.00;99.90
25092;DHT22;13082;52.374;4.946;2023-04-15T04:46:48;9.10;99.90
25092;DHT22;13082;52.374;4.946;2023-04-15T04:49:14;9.10;99.90
25092;DHT22;13082;52.374;4.946;2023-04-15T04:51:39;9.10;99.90
25092;DHT22;13082;52.374;4.946;2023-04-15T04:54:05;9.10;99.90
25092;DHT22;13082;52.374;4.946;2023-04-15T04:56:31;9.10;99.90
25092;DHT22;13082;52.374;4.946;2023-04-15T04:58:58;9.00;99.90
25092;DHT22;13082;52.374;4.946;2023-04-15T05:01:24;9.00;99.90
25092;DHT22;13082;52.374;4.946;2023-04-15T05:03:51;9.00;99.90
25092;DHT22;13082;52.374;4.946;2023-04-15T05:06:17;9.00;99.90
25092;DHT22;13082;52.374;4.946;2023-04-15T05:08:43;9.00;99.90
25092;DHT22;13082;52.374;4.946;2023-04-15T05:11:08;9.00;99.90
25092;DHT22;13082;52.374;4.946;2023-04-15T05:13:34;9.00;99.90
25092;DHT22;13082;52.374;4.946;2023-04-15T05:16:03;9.00;99.90
25092;DHT22;13082;52.374;4.946;2023-04-15T05:18:29;9.00;99.90
25092;DHT22;13082;52.374;4.946;2023-04-15T05:20:55;9.00;99.90
25092;DHT22;13082;52.374;4.946;2023-04-15T05:23:21;9.10;99.90
25092;DHT22;13082;52.374;4.946;2023-04-15T05:25:46;9.10;99.90
25092;DHT22;13082;52.374;4.946;2023-04-15T05:28:12;9.10;99.90
25092;DHT22;13082;52.374;4.946;2023-04-15T05:30:38;9.10;99.90
25092;DHT22;13082;52.374;4.946;2023-04-15T05:33:03;9.10;99.90
25092;DHT22;13082;52.374;4.946;2023-04-15T05:35:29;9.10;99.90
25092;DHT22;13082;52.374;4.946;2023-04-15T05:37:55;9.10;99.90
25092;DHT22;13082;52.374;4.946;2023-04-15T05:40:20;9.20;99.90
25092;DHT22;13082;52.374;4.946;2023-04-15T05:42:46;9.20;99.90
25092;DHT22;13082;52.374;4.946;2023-04-15T05:45:12;9.20;99.90
25092;DHT22;13082;52.374;4.946;2023-04-15T05:47:37;9.20;99.90
25092;DHT22;13082;52.374;4.946;2023-04-15T05:50:04;9.20;99.90
25092;DHT22;13082;52.374;4.946;2023-04-15T05:52:30;9.30;99.90
25092;DHT22;13082;52.374;4.946;2023-04-15T05:54:56;9.30;99.90
25092;DHT22;13082;52.374;4.946;2023-04-15T05:57:21;9.30;99.90
25092;DHT22;13082;52.374;4.946;2023-04-15T05:59:47;9.30;99.90
25092;DHT22;13082;52.374;4.946;2023-04-15T06:02:13;9.40;99.90
25092;DHT22;13082;52.374;4.946;2023-04-15T06:04:39;9.40;99.90
25092;DHT22;13082;52.374;4.946;2023-04-15T06:07:04;9.50;99.90
25092;DHT22;13082;52.374;4.946;2023-04-15T06:09:30;9.50;99.90
25092;DHT22;13082;52.374;4.946;2023-04-15T06:11:56;9.50;99.90
25092;DHT22;13082;52.374;4.946;2023-04-15T06:14:22;9.60;99.90
25092;DHT22;13082;52.374;4.946;2023-04-15T06:16:47;9.70;99.90
25092;DHT22;13082;52.374;4.946;2023-04-15T06:19:13;9.70;99.90
25092;DHT22;13082;52.374;4.946;2023-04-15T06:21:39;9.80;99.90
25092;DHT22;13082;52.374;4.946;2023-04-15T06:24:05;9.80;99.90
25092;DHT22;13082;52.374;4.946;2023-04-15T06:26:30;9.90;99.90
25092;DHT22;13082;52.374;4.946;2023-04-15T06:28:56;10.00;99.90
25092;DHT22;13082;52.374;4.946;2023-04-15T06:31:22;10.00;99.90
25092;DHT22;13082;52.374;4.946;2023-04-15T06:33:47;10.10;99.90
25092;DHT22;13082;52.374;4.946;2023-04-15T06:36:13;10.10;99.90
25092;DHT22;13082;52.374;4.946;2023-04-15T06:38:39;10.20;99.90
25092;DHT22;13082;52.374;4.946;2023-04-15T06:41:05;10.20;99.90
25092;DHT22;13082;52.374;4.946;2023-04-15T06:43:31;10.30;99.90
25092;DHT22;13082;52.374;4.946;2023-04-15T06:45:56;10.30;99.90
25092;DHT22;13082;52.374;4.946;2023-04-15T06:48:22;10.40;99.90
25092;DHT22;13082;52.374;4.946;2023-04-15T06:50:48;10.50;99.90
25092;DHT22;13082;52.374;4.946;2023-04-15T06:53:14;10.50;99.90
25092;DHT22;13082;52.374;4.946;2023-04-15T06:55:40;10.50;99.90
25092;DHT22;13082;52.374;4.946;2023-04-15T06:58:06;10.60;99.90
25092;DHT22;13082;52.374;4.946;2023-04-15T07:00:32;10.60;99.90
25092;DHT22;13082;52.374;4.946;2023-04-15T07:02:58;10.60;99.90
25092;DHT22;13082;52.374;4.946;2023-04-15T07:05:28;10.70;99.90
25092;DHT22;13082;52.374;4.946;2023-04-15T07:07:53;10.70;99.90
25092;DHT22;13082;52.374;4.946;2023-04-15T07:10:19;10.80;99.90
25092;DHT22;13082;52.374;4.946;2023-04-15T07:12:46;10.90;99.90
25092;DHT22;13082;52.374;4.946;2023-04-15T07:15:12;11.00;99.90
25092;DHT22;13082;52.374;4.946;2023-04-15T07:17:37;11.00;99.90
25092;DHT22;13082;52.374;4.946;2023-04-15T07:20:03;11.10;99.90
25092;DHT22;13082;52.374;4.946;2023-04-15T07:22:29;11.20;99.90
25092;DHT22;13082;52.374;4.946;2023-04-15T07:24:55;11.20;99.90
25092;DHT22;13082;52.374;4.946;2023-04-15T07:27:20;11.20;99.90
25092;DHT22;13082;52.374;4.946;2023-04-15T07:29:47;11.30;99.90
25092;DHT22;13082;52.374;4.946;2023-04-15T07:32:13;11.30;99.90
25092;DHT22;13082;52.374;4.946;2023-04-15T07:34:38;11.40;99.90
25092;DHT22;13082;52.374;4.946;2023-04-15T07:37:04;11.50;99.90
25092;DHT22;13082;52.374;4.946;2023-04-15T07:39:29;11.50;99.90
25092;DHT22;13082;52.374;4.946;2023-04-15T07:41:55;11.60;99.90
25092;DHT22;13082;52.374;4.946;2023-04-15T07:44:21;11.60;99.90
25092;DHT22;13082;52.374;4.946;2023-04-15T07:46:46;11.70;99.90
25092;DHT22;13082;52.374;4.946;2023-04-15T07:49:12;11.80;99.90
25092;DHT22;13082;52.374;4.946;2023-04-15T07:51:38;11.90;99.90
25092;DHT22;13082;52.374;4.946;2023-04-15T07:54:04;11.90;99.90
25092;DHT22;13082;52.374;4.946;2023-04-15T07:56:30;11.80;99.90
25092;DHT22;13082;52.374;4.946;2023-04-15T07:58:55;11.80;99.90
25092;DHT22;13082;52.374;4.946;2023-04-15T08:01:21;11.90;99.90
25092;DHT22;13082;52.374;4.946;2023-04-15T08:03:47;11.90;99.90
25092;DHT22;13082;52.374;4.946;2023-04-15T08:06:12;11.90;99.90
25092;DHT22;13082;52.374;4.946;2023-04-15T08:08:38;11.90;99.90
25092;DHT22;13082;52.374;4.946;2023-04-15T08:11:04;11.90;99.90
25092;DHT22;13082;52.374;4.946;2023-04-15T08:13:30;11.90;99.90
25092;DHT22;13082;52.374;4.946;2023-04-15T08:18:39;12.10;99.90
25092;DHT22;13082;52.374;4.946;2023-04-15T08:21:05;12.20;99.90
25092;DHT22;13082;52.374;4.946;2023-04-15T08:23:31;12.20;99.90
25092;DHT22;13082;52.374;4.946;2023-04-15T08:25:57;12.30;99.90
25092;DHT22;13082;52.374;4.946;2023-04-15T08:28:23;12.30;99.90
25092;DHT22;13082;52.374;4.946;2023-04-15T08:30:48;12.40;99.90
25092;DHT22;13082;52.374;4.946;2023-04-15T08:33:14;12.40;99.90
25092;DHT22;13082;52.374;4.946;2023-04-15T08:35:41;12.40;99.90
25092;DHT22;13082;52.374;4.946;2023-04-15T08:38:06;12.40;99.90
25092;DHT22;13082;52.374;4.946;2023-04-15T08:40:40;12.40;99.90
25092;DHT22;13082;52.374;4.946;2023-04-15T08:43:09;12.50;99.90
25092;DHT22;13082;52.374;4.946;2023-04-15T08:45:37;12.40;99.90
25092;DHT22;13082;52.374;4.946;2023-04-15T08:48:04;12.50;99.90
25092;DHT22;13082;52.374;4.946;2023-04-15T08:50:31;12.50;99.90
25092;DHT22;13082;52.374;4.946;2023-04-15T08:53:00;12.50;99.90
25092;DHT22;13082;52.374;4.946;2023-04-15T08:55:31;12.60;99.90
25092;DHT22;13082;52.374;4.946;2023-04-15T08:58:01;12.60;99.90
25092;DHT22;13082;52.374;4.946;2023-04-15T09:00:28;12.70;99.90
25092;DHT22;13082;52.374;4.946;2023-04-15T09:02:55;12.90;99.90
25092;DHT22;13082;52.374;4.946;2023-04-15T09:05:21;12.90;99.90
25092;DHT22;13082;52.374;4.946;2023-04-15T09:07:47;12.90;99.90
25092;DHT22;13082;52.374;4.946;2023-04-15T09:10:14;12.90;99.90
25092;DHT22;13082;52.374;4.946;2023-04-15T09:12:40;12.90;99.90
25092;DHT22;13082;52.374;4.946;2023-04-15T09:15:07;12.90;99.90
25092;DHT22;13082;52.374;4.946;2023-04-15T09:17:44;13.00;99.90
25092;DHT22;13082;52.374;4.946;2023-04-15T09:20:11;13.00;99.90
25092;DHT22;13082;52.374;4.946;2023-04-15T09:22:38;13.00;99.90
25092;DHT22;13082;52.374;4.946;2023-04-15T09:25:25;13.00;99.90
25092;DHT22;13082;52.374;4.946;2023-04-15T09:27:55;13.10;99.90
25092;DHT22;13082;52.374;4.946;2023-04-15T09:30:22;13.20;99.90
25092;DHT22;13082;52.374;4.946;2023-04-15T09:32:59;13.30;99.90
25092;DHT22;13082;52.374;4.946;2023-04-15T09:35:26;13.40;99.90
25092;DHT22;13082;52.374;4.946;2023-04-15T09:37:53;13.40;99.90
25092;DHT22;13082;52.374;4.946;2023-04-15T09:40:38;13.40;99.90
25092;DHT22;13082;52.374;4.946;2023-04-15T09:43:06;13.60;99.90
25092;DHT22;13082;52.374;4.946;2023-04-15T09:45:33;13.60;99.90
25092;DHT22;13082;52.374;4.946;2023-04-15T09:48:20;13.70;99.90
25092;DHT22;13082;52.374;4.946;2023-04-15T09:50:48;13.80;99.90
25092;DHT22;13082;52.374;4.946;2023-04-15T09:53:22;13.90;99.90
25092;DHT22;13082;52.374;4.946;2023-04-15T09:55:55;13.90;99.90
25092;DHT22;13082;52.374;4.946;2023-04-15T09:58:23;13.90;99.90
25092;DHT22;13082;52.374;4.946;2023-04-15T10:00:50;13.80;99.90
25092;DHT22;13082;52.374;4.946;2023-04-15T10:05:48;13.70;99.90
25092;DHT22;13082;52.374;4.946;2023-04-15T10:08:17;13.70;99.90
25092;DHT22;13082;52.374;4.946;2023-04-15T10:10:45;13.60;99.90
25092;DHT22;13082;52.374;4.946;2023-04-15T10:13:13;13.60;99.90
25092;DHT22;13082;52.374;4.946;2023-04-15T10:15:44;13.60;99.90
25092;DHT22;13082;52.374;4.946;2023-04-15T10:18:14;13.70;99.90
25092;DHT22;13082;52.374;4.946;2023-04-15T10:20:41;13.70;99.90
25092;DHT22;13082;52.374;4.946;2023-04-15T10:23:08;13.70;99.90
25092;DHT22;13082;52.374;4.946;2023-04-15T10:25:34;13.60;99.90
25092;DHT22;13082;52.374;4.946;2023-04-15T10:28:01;13.60;99.90
25092;DHT22;13082;52.374;4.946;2023-04-15T10:30:27;13.60;99.90
25092;DHT22;13082;52.374;4.946;2023-04-15T10:32:53;13.60;99.90
25092;DHT22;13082;52.374;4.946;2023-04-15T10:35:20;13.60;99.90
25092;DHT22;13082;52.374;4.946;2023-04-15T10:37:46;13.60;99.90
25092;DHT22;13082;52.374;4.946;2023-04-15T10:40:29;13.50;99.90
25092;DHT22;13082;52.374;4.946;2023-04-15T10:43:02;13.30;99.90
25092;DHT22;13082;52.374;4.946;2023-04-15T10:45:33;13.40;99.90
25092;DHT22;13082;52.374;4.946;2023-04-15T10:48:01;13.50;99.90
25092;DHT22;13082;52.374;4.946;2023-04-15T10:50:29;13.50;99.90
25092;DHT22;13082;52.374;4.946;2023-04-15T10:52:55;13.60;99.90
25092;DHT22;13082;52.374;4.946;2023-04-15T10:55:25;13.60;99.90
25092;DHT22;13082;52.374;4.946;2023-04-15T10:57:58;13.60;99.90
25092;DHT22;13082;52.374;4.946;2023-04-15T11:00:27;13.60;99.90
25092;DHT22;13082;52.374;4.946;2023-04-15T11:03:07;13.80;99.90
25092;DHT22;13082;52.374;4.946;2023-04-15T11:05:50;13.80;99.90
25092;DHT22;13082;52.374;4.946;2023-04-15T11:08:17;13.80;99.90
25092;DHT22;13082;52.374;4.946;2023-04-15T11:15:40;13.80;99.90
25092;DHT22;13082;52.374;4.946;2023-04-15T11:20:37;13.90;99.90
25092;DHT22;13082;52.374;4.946;2023-04-15T11:23:03;13.90;99.90
25092;DHT22;13082;52.374;4.946;2023-04-15T11:25:33;13.90;99.90
25092;DHT22;13082;52.374;4.946;2023-04-15T11:28:00;14.00;99.90
25092;DHT22;13082;52.374;4.946;2023-04-15T11:30:31;14.10;99.90
25092;DHT22;13082;52.374;4.946;2023-04-15T11:33:02;14.20;99.90
25092;DHT22;13082;52.374;4.946;2023-04-15T11:35:29;14.20;99.90
25092;DHT22;13082;52.374;4.946;2023-04-15T11:37:55;14.30;99.90
25092;DHT22;13082;52.374;4.946;2023-04-15T11:40:27;14.30;99.90
25092;DHT22;13082;52.374;4.946;2023-04-15T11:43:16;14.30;99.90
25092;DHT22;13082;52.374;4.946;2023-04-15T11:45:49;14.20;99.90
25092;DHT22;13082;52.374;4.946;2023-04-15T11:48:16;14.00;99.90
25092;DHT22;13082;52.374;4.946;2023-04-15T11:50:41;14.00;99.90
25092;DHT22;13082;52.374;4.946;2023-04-15T11:53:09;14.20;99.90
25092;DHT22;13082;52.374;4.946;2023-04-15T11:55:47;14.20;99.90
25092;DHT22;13082;52.374;4.946;2023-04-15T12:01:01;14.30;99.90
25092;DHT22;13082;52.374;4.946;2023-04-15T12:13:55;14.60;99.90
25092;DHT22;13082;52.374;4.946;2023-04-15T12:16:22;14.70;99.90
25092;DHT22;13082;52.374;4.946;2023-04-15T12:18:51;14.60;99.90
25092;DHT22;13082;52.374;4.946;2023-04-15T12:21:21;14.60;99.90
25092;DHT22;13082;52.374;4.946;2023-04-15T12:23:51;14.60;99.90
25092;DHT22;13082;52.374;4.946;2023-04-15T12:26:18;14.70;99.90
25092;DHT22;13082;52.374;4.946;2023-04-15T12:28:59;14.80;99.90
25092;DHT22;13082;52.374;4.946;2023-04-15T12:31:25;14.80;99.90
25092;DHT22;13082;52.374;4.946;2023-04-15T12:33:51;14.80;99.90
25092;DHT22;13082;52.374;4.946;2023-04-15T12:36:19;14.80;99.90
25092;DHT22;13082;52.374;4.946;2023-04-15T12:38:44;14.90;99.90
25092;DHT22;13082;52.374;4.946;2023-04-15T12:41:11;15.00;99.90
25092;DHT22;13082;52.374;4.946;2023-04-15T12:43:36;14.90;99.90
25092;DHT22;13082;52.374;4.946;2023-04-15T12:46:02;14.60;99.90
25092;DHT22;13082;52.374;4.946;2023-04-15T12:48:29;14.40;99.90
25092;DHT22;13082;52.374;4.946;2023-04-15T12:50:54;14.30;99.90
25092;DHT22;13082;52.374;4.946;2023-04-15T12:53:20;14.30;99.90
25092;DHT22;13082;52.374;4.946;2023-04-15T12:55:46;14.20;99.90
25092;DHT22;13082;52.374;4.946;2023-04-15T12:58:11;14.20;99.90
25092;DHT22;13082;52.374;4.946;2023-04-15T13:00:38;14.10;99.90
25092;DHT22;13082;52.374;4.946;2023-04-15T13:03:03;14.10;99.90
25092;DHT22;13082;52.374;4.946;2023-04-15T13:05:29;14.20;99.90
25092;DHT22;13082;52.374;4.946;2023-04-15T13:07:55;14.20;99.90
25092;DHT22;13082;52.374;4.946;2023-04-15T13:10:21;14.20;99.90
25092;DHT22;13082;52.374;4.946;2023-04-15T13:12:48;14.20;99.90
25092;DHT22;13082;52.374;4.946;2023-04-15T13:15:18;14.10;99.90
25092;DHT22;13082;52.374;4.946;2023-04-15T13:17:45;14.00;99.90
25092;DHT22;13082;52.374;4.946;2023-04-15T13:20:11;14.00;99.90
25092;DHT22;13082;52.374;4.946;2023-04-15T13:22:37;13.90;99.90
25092;DHT22;13082;52.374;4.946;2023-04-15T13:25:02;13.80;99.90
25092;DHT22;13082;52.374;4.946;2023-04-15T13:27:28;13.70;99.90
25092;DHT22;13082;52.374;4.946;2023-04-15T13:29:54;13.70;99.90
25092;DHT22;13082;52.374;4.946;2023-04-15T13:32:20;13.60;99.90
25092;DHT22;13082;52.374;4.946;2023-04-15T13:34:45;13.60;99.90
25092;DHT22;13082;52.374;4.946;2023-04-15T13:37:11;13.50;99.90
25092;DHT22;13082;52.374;4.946;2023-04-15T13:39:36;13.30;99.90
25092;DHT22;13082;52.374;4.946;2023-04-15T13:42:02;13.30;99.90
25092;DHT22;13082;52.374;4.946;2023-04-15T13:44:28;13.30;99.90
25092;DHT22;13082;52.374;4.946;2023-04-15T13:46:53;13.10;99.90
25092;DHT22;13082;52.374;4.946;2023-04-15T13:49:19;13.10;99.90
25092;DHT22;13082;52.374;4.946;2023-04-15T13:51:45;13.00;99.90
25092;DHT22;13082;52.374;4.946;2023-04-15T13:54:11;12.90;99.90
25092;DHT22;13082;52.374;4.946;2023-04-15T13:56:36;12.90;99.90
25092;DHT22;13082;52.374;4.946;2023-04-15T13:59:02;12.70;99.90
25092;DHT22;13082;52.374;4.946;2023-04-15T14:01:28;12.70;99.90
25092;DHT22;13082;52.374;4.946;2023-04-15T14:03:54;12.70;99.90
25092;DHT22;13082;52.374;4.946;2023-04-15T14:06:21;12.70;99.90
25092;DHT22;13082;52.374;4.946;2023-04-15T14:08:46;12.70;99.90
25092;DHT22;13082;52.374;4.946;2023-04-15T14:11:12;12.70;99.90
25092;DHT22;13082;52.374;4.946;2023-04-15T14:13:38;12.70;99.90
25092;DHT22;13082;52.374;4.946;2023-04-15T14:16:04;12.60;99.90
25092;DHT22;13082;52.374;4.946;2023-04-15T14:18:29;12.50;99.90
25092;DHT22;13082;52.374;4.946;2023-04-15T14:20:55;12.50;99.90
25092;DHT22;13082;52.374;4.946;2023-04-15T14:23:21;12.50;99.90
25092;DHT22;13082;52.374;4.946;2023-04-15T14:25:47;12.50;99.90
25092;DHT22;13082;52.374;4.946;2023-04-15T14:28:13;12.50;99.90
25092;DHT22;13082;52.374;4.946;2023-04-15T14:30:39;12.60;99.90
25092;DHT22;13082;52.374;4.946;2023-04-15T14:33:04;12.60;99.90
25092;DHT22;13082;52.374;4.946;2023-04-15T14:35:30;12.50;99.90
25092;DHT22;13082;52.374;4.946;2023-04-15T14:37:56;12.50;99.90
25092;DHT22;13082;52.374;4.946;2023-04-15T14:40:22;12.50;99.90
25092;DHT22;13082;52.374;4.946;2023-04-15T14:42:48;12.50;99.90
25092;DHT22;13082;52.374;4.946;2023-04-15T14:45:14;12.50;99.90
25092;DHT22;13082;52.374;4.946;2023-04-15T14:47:39;12.50;99.90
25092;DHT22;13082;52.374;4.946;2023-04-15T14:50:05;12.60;99.90
25092;DHT22;13082;52.374;4.946;2023-04-15T14:52:31;12.60;99.90
25092;DHT22;13082;52.374;4.946;2023-04-15T14:55:06;12.70;99.90
25092;DHT22;13082;52.374;4.946;2023-04-15T14:57:32;12.80;99.90
25092;DHT22;13082;52.374;4.946;2023-04-15T14:59:58;12.80;99.90
25092;DHT22;13082;52.374;4.946;2023-04-15T15:02:23;12.90;99.90
25092;DHT22;13082;52.374;4.946;2023-04-15T15:04:49;13.00;99.90
25092;DHT22;13082;52.374;4.946;2023-04-15T15:07:15;12.90;99.90
25092;DHT22;13082;52.374;4.946;2023-04-15T15:09:40;12.70;99.90
25092;DHT22;13082;52.374;4.946;2023-04-15T15:12:06;12.70;99.90
25092;DHT22;13082;52.374;4.946;2023-04-15T15:14:32;12.60;99.90
25092;DHT22;13082;52.374;4.946;2023-04-15T15:16:58;12.60;99.90
25092;DHT22;13082;52.374;4.946;2023-04-15T15:19:23;12.60;99.90
25092;DHT22;13082;52.374;4.946;2023-04-15T15:21:49;12.60;99.90
25092;DHT22;13082;52.374;4.946;2023-04-15T15:24:15;12.60;99.90
25092;DHT22;13082;52.374;4.946;2023-04-15T15:26:40;12.50;99.90
25092;DHT22;13082;52.374;4.946;2023-04-15T15:29:07;12.30;99.90
25092;DHT22;13082;52.374;4.946;2023-04-15T15:31:34;12.20;99.90
25092;DHT22;13082;52.374;4.946;2023-04-15T15:34:00;12.20;99.90
25092;DHT22;13082;52.374;4.946;2023-04-15T15:36:25;12.00;99.90
25092;DHT22;13082;52.374;4.946;2023-04-15T15:38:54;12.00;99.90
25092;DHT22;13082;52.374;4.946;2023-04-15T15:41:19;12.00;99.90
25092;DHT22;13082;52.374;4.946;2023-04-15T15:43:45;12.00;99.90
25092;DHT22;13082;52.374;4.946;2023-04-15T15:46:11;11.90;99.90
25092;DHT22;13082;52.374;4.946;2023-04-15T15:48:36;11.90;99.90
25092;DHT22;13082;52.374;4.946;2023-04-15T15:51:02;11.80;99.90
25092;DHT22;13082;52.374;4.946;2023-04-15T15:53:28;11.80;99.90
25092;DHT22;13082;52.374;4.946;2023-04-15T15:55:54;11.80;99.90
25092;DHT22;13082;52.374;4.946;2023-04-15T15:58:20;11.60;99.90